EFKE/KEM METAR and TAF weather

Enter ICAO airport designator
Station Type Date Time Source
EFKE METAR 2022/08/12 15:20 UTC NOAA

EFKE 121520Z AUTO 30009KT 270V330 CAVOK 18/04 Q1018


Station Type Date Time Source
EFKE Decoded METAR 2022/08/12 15:20 UTC NOAA

Kemi, Finland (EFKE) 65-47N 024-35E
Aug 12, 2022 - 11:20 AM EDT / 2022.08.12 1520 UTC
Wind: from the WNW (300 degrees) at 10 MPH (9 KT) (direction variable):0
Visibility: greater than 7 mile(s):0
Temperature: 64 F (18 C)
Dew Point: 39 F (4 C)
Relative Humidity: 39%
Pressure (altimeter): 30.06 in. Hg (1018 hPa)
ob: EFKE 121520Z AUTO 30009KT 270V330 CAVOK 18/04 Q1018
cycle: 15

Station Type Date Time Source
EFKE TAF 2015/01/12 15:42 UTC NOAA

TAF EFKE 121433Z 1215/1312 03006KT CAVOK
BECMG 1300/1302 9999 BKN015
FM130400 07008KT 9999 SCT014 BKN018
TEMPO 1304/1312 7000 -SN

Example: see airport list